sensor_id;sensor_type;location;lat;lon;timestamp;P1;durP1;ratioP1;P2;durP2;ratioP2
2602;SDS011;1311;47.966;7.958;2022-08-19T00:00:46;9.00;;;8.07;;
2602;SDS011;1311;47.966;7.958;2022-08-19T00:03:12;8.93;;;7.53;;
2602;SDS011;1311;47.966;7.958;2022-08-19T00:05:39;9.20;;;8.30;;
2602;SDS011;1311;47.966;7.958;2022-08-19T00:08:07;8.93;;;7.97;;
2602;SDS011;1311;47.966;7.958;2022-08-19T00:10:34;9.10;;;8.20;;
2602;SDS011;1311;47.966;7.958;2022-08-19T00:13:03;8.40;;;7.50;;
2602;SDS011;1311;47.966;7.958;2022-08-19T00:15:30;8.73;;;7.67;;
2602;SDS011;1311;47.966;7.958;2022-08-19T00:17:57;7.67;;;6.97;;
2602;SDS011;1311;47.966;7.958;2022-08-19T00:20:24;7.23;;;6.53;;
2602;SDS011;1311;47.966;7.958;2022-08-19T00:22:51;8.30;;;7.50;;
2602;SDS011;1311;47.966;7.958;2022-08-19T00:25:19;9.57;;;7.90;;
2602;SDS011;1311;47.966;7.958;2022-08-19T00:27:45;8.60;;;7.73;;
2602;SDS011;1311;47.966;7.958;2022-08-19T00:30:14;7.13;;;6.13;;
2602;SDS011;1311;47.966;7.958;2022-08-19T00:32:41;7.57;;;6.83;;
2602;SDS011;1311;47.966;7.958;2022-08-19T00:35:08;7.50;;;6.60;;
2602;SDS011;1311;47.966;7.958;2022-08-19T00:37:36;8.60;;;7.77;;
2602;SDS011;1311;47.966;7.958;2022-08-19T00:40:05;7.23;;;6.53;;
2602;SDS011;1311;47.966;7.958;2022-08-19T00:42:33;6.57;;;5.97;;
2602;SDS011;1311;47.966;7.958;2022-08-19T00:45:02;7.67;;;6.97;;
2602;SDS011;1311;47.966;7.958;2022-08-19T00:47:35;7.57;;;6.77;;
2602;SDS011;1311;47.966;7.958;2022-08-19T00:50:02;10.20;;;8.27;;
2602;SDS011;1311;47.966;7.958;2022-08-19T00:52:32;7.97;;;7.17;;
2602;SDS011;1311;47.966;7.958;2022-08-19T00:55:03;6.80;;;6.20;;
2602;SDS011;1311;47.966;7.958;2022-08-19T00:57:32;8.37;;;7.30;;
2602;SDS011;1311;47.966;7.958;2022-08-19T01:00:04;7.77;;;7.03;;
2602;SDS011;1311;47.966;7.958;2022-08-19T01:02:36;8.93;;;8.03;;
2602;SDS011;1311;47.966;7.958;2022-08-19T01:05:05;8.40;;;7.60;;
2602;SDS011;1311;47.966;7.958;2022-08-19T01:07:34;9.20;;;6.33;;
2602;SDS011;1311;47.966;7.958;2022-08-19T01:10:04;8.33;;;6.90;;
2602;SDS011;1311;47.966;7.958;2022-08-19T01:12:33;11.13;;;7.80;;
2602;SDS011;1311;47.966;7.958;2022-08-19T01:15:01;7.40;;;6.60;;
2602;SDS011;1311;47.966;7.958;2022-08-19T01:17:29;9.97;;;8.60;;
2602;SDS011;1311;47.966;7.958;2022-08-19T01:19:57;9.93;;;8.93;;
2602;SDS011;1311;47.966;7.958;2022-08-19T01:22:27;9.77;;;8.80;;
2602;SDS011;1311;47.966;7.958;2022-08-19T01:24:56;10.23;;;9.20;;
2602;SDS011;1311;47.966;7.958;2022-08-19T01:27:23;10.17;;;9.17;;
2602;SDS011;1311;47.966;7.958;2022-08-19T01:29:50;10.80;;;9.70;;
2602;SDS011;1311;47.966;7.958;2022-08-19T01:32:16;9.63;;;8.53;;
2602;SDS011;1311;47.966;7.958;2022-08-19T01:34:44;8.50;;;7.70;;
2602;SDS011;1311;47.966;7.958;2022-08-19T01:37:12;7.87;;;6.73;;
2602;SDS011;1311;47.966;7.958;2022-08-19T01:39:41;7.10;;;6.40;;
2602;SDS011;1311;47.966;7.958;2022-08-19T01:42:08;7.90;;;7.10;;
2602;SDS011;1311;47.966;7.958;2022-08-19T01:44:37;7.53;;;6.77;;
2602;SDS011;1311;47.966;7.958;2022-08-19T01:47:05;7.80;;;7.00;;
2602;SDS011;1311;47.966;7.958;2022-08-19T01:49:34;8.73;;;7.83;;
2602;SDS011;1311;47.966;7.958;2022-08-19T01:52:02;8.33;;;7.53;;
2602;SDS011;1311;47.966;7.958;2022-08-19T01:54:31;8.87;;;7.97;;
2602;SDS011;1311;47.966;7.958;2022-08-19T01:57:01;9.10;;;7.53;;
2602;SDS011;1311;47.966;7.958;2022-08-19T01:59:29;9.73;;;8.67;;
2602;SDS011;1311;47.966;7.958;2022-08-19T02:01:57;10.73;;;9.17;;
2602;SDS011;1311;47.966;7.958;2022-08-19T02:04:24;9.03;;;8.13;;
2602;SDS011;1311;47.966;7.958;2022-08-19T02:06:51;9.93;;;8.80;;
2602;SDS011;1311;47.966;7.958;2022-08-19T02:09:18;8.83;;;7.33;;
2602;SDS011;1311;47.966;7.958;2022-08-19T02:11:44;9.07;;;8.17;;
2602;SDS011;1311;47.966;7.958;2022-08-19T02:14:12;9.37;;;8.30;;
2602;SDS011;1311;47.966;7.958;2022-08-19T02:16:39;8.37;;;7.57;;
2602;SDS011;1311;47.966;7.958;2022-08-19T02:19:06;10.20;;;8.10;;
2602;SDS011;1311;47.966;7.958;2022-08-19T02:21:33;8.00;;;7.20;;
2602;SDS011;1311;47.966;7.958;2022-08-19T02:24:00;9.37;;;7.23;;
2602;SDS011;1311;47.966;7.958;2022-08-19T02:26:28;8.13;;;7.33;;
2602;SDS011;1311;47.966;7.958;2022-08-19T02:28:55;8.10;;;6.60;;
2602;SDS011;1311;47.966;7.958;2022-08-19T02:31:24;9.30;;;8.20;;
2602;SDS011;1311;47.966;7.958;2022-08-19T02:33:52;9.70;;;8.27;;
2602;SDS011;1311;47.966;7.958;2022-08-19T02:36:20;8.60;;;7.40;;
2602;SDS011;1311;47.966;7.958;2022-08-19T02:38:47;8.20;;;7.40;;
2602;SDS011;1311;47.966;7.958;2022-08-19T02:41:15;8.77;;;7.87;;
2602;SDS011;1311;47.966;7.958;2022-08-19T02:43:43;8.57;;;7.67;;
2602;SDS011;1311;47.966;7.958;2022-08-19T02:46:11;7.57;;;6.67;;
2602;SDS011;1311;47.966;7.958;2022-08-19T02:48:40;10.70;;;9.40;;
2602;SDS011;1311;47.966;7.958;2022-08-19T02:51:08;10.90;;;9.33;;
2602;SDS011;1311;47.966;7.958;2022-08-19T02:53:41;10.67;;;9.20;;
2602;SDS011;1311;47.966;7.958;2022-08-19T02:56:08;7.30;;;6.60;;
2602;SDS011;1311;47.966;7.958;2022-08-19T02:58:35;7.70;;;7.00;;
2602;SDS011;1311;47.966;7.958;2022-08-19T03:01:02;9.03;;;8.13;;
2602;SDS011;1311;47.966;7.958;2022-08-19T03:03:28;8.90;;;8.00;;
2602;SDS011;1311;47.966;7.958;2022-08-19T03:06:06;7.90;;;7.10;;
2602;SDS011;1311;47.966;7.958;2022-08-19T03:08:34;9.33;;;8.37;;
2602;SDS011;1311;47.966;7.958;2022-08-19T03:11:01;8.80;;;7.90;;
2602;SDS011;1311;47.966;7.958;2022-08-19T03:13:28;8.43;;;7.20;;
2602;SDS011;1311;47.966;7.958;2022-08-19T03:15:55;10.80;;;9.53;;
2602;SDS011;1311;47.966;7.958;2022-08-19T03:18:22;9.77;;;8.77;;
2602;SDS011;1311;47.966;7.958;2022-08-19T03:20:50;9.37;;;8.00;;
2602;SDS011;1311;47.966;7.958;2022-08-19T03:23:20;8.47;;;7.63;;
2602;SDS011;1311;47.966;7.958;2022-08-19T03:25:48;7.93;;;7.13;;
2602;SDS011;1311;47.966;7.958;2022-08-19T03:28:16;10.50;;;9.50;;
2602;SDS011;1311;47.966;7.958;2022-08-19T03:30:54;11.37;;;10.17;;
2602;SDS011;1311;47.966;7.958;2022-08-19T03:33:22;11.93;;;10.70;;
2602;SDS011;1311;47.966;7.958;2022-08-19T03:35:59;14.30;;;10.63;;
2602;SDS011;1311;47.966;7.958;2022-08-19T03:38:31;9.03;;;8.10;;
2602;SDS011;1311;47.966;7.958;2022-08-19T03:41:02;8.37;;;7.43;;
2602;SDS011;1311;47.966;7.958;2022-08-19T03:43:31;11.03;;;8.53;;
2602;SDS011;1311;47.966;7.958;2022-08-19T03:45:59;9.53;;;8.53;;
2602;SDS011;1311;47.966;7.958;2022-08-19T03:48:29;9.80;;;8.80;;
2602;SDS011;1311;47.966;7.958;2022-08-19T03:50:56;11.07;;;9.60;;
2602;SDS011;1311;47.966;7.958;2022-08-19T03:53:24;9.70;;;8.27;;
2602;SDS011;1311;47.966;7.958;2022-08-19T03:55:53;9.30;;;8.30;;
2602;SDS011;1311;47.966;7.958;2022-08-19T03:58:20;11.13;;;9.83;;
2602;SDS011;1311;47.966;7.958;2022-08-19T04:00:47;9.80;;;8.80;;
2602;SDS011;1311;47.966;7.958;2022-08-19T04:03:14;10.80;;;9.43;;
2602;SDS011;1311;47.966;7.958;2022-08-19T04:05:41;12.83;;;11.20;;
2602;SDS011;1311;47.966;7.958;2022-08-19T04:08:08;10.77;;;9.67;;
2602;SDS011;1311;47.966;7.958;2022-08-19T04:10:35;11.43;;;9.83;;
2602;SDS011;1311;47.966;7.958;2022-08-19T04:13:04;11.37;;;9.90;;
2602;SDS011;1311;47.966;7.958;2022-08-19T04:15:32;10.17;;;9.07;;
2602;SDS011;1311;47.966;7.958;2022-08-19T04:18:04;12.27;;;10.70;;
2602;SDS011;1311;47.966;7.958;2022-08-19T04:20:32;9.67;;;8.67;;
2602;SDS011;1311;47.966;7.958;2022-08-19T04:22:59;12.07;;;9.77;;
2602;SDS011;1311;47.966;7.958;2022-08-19T04:25:26;12.73;;;10.57;;
2602;SDS011;1311;47.966;7.958;2022-08-19T04:27:52;11.40;;;9.77;;
2602;SDS011;1311;47.966;7.958;2022-08-19T04:30:20;12.03;;;10.40;;
2602;SDS011;1311;47.966;7.958;2022-08-19T04:32:47;10.70;;;9.60;;
2602;SDS011;1311;47.966;7.958;2022-08-19T04:35:15;11.60;;;10.20;;
2602;SDS011;1311;47.966;7.958;2022-08-19T04:37:42;12.27;;;9.20;;
2602;SDS011;1311;47.966;7.958;2022-08-19T04:40:09;11.00;;;9.90;;
2602;SDS011;1311;47.966;7.958;2022-08-19T04:42:54;11.87;;;10.13;;
2602;SDS011;1311;47.966;7.958;2022-08-19T04:45:22;12.23;;;10.97;;
2602;SDS011;1311;47.966;7.958;2022-08-19T04:47:49;11.73;;;10.53;;
2602;SDS011;1311;47.966;7.958;2022-08-19T04:50:22;10.97;;;9.47;;
2602;SDS011;1311;47.966;7.958;2022-08-19T04:52:49;9.40;;;8.40;;
2602;SDS011;1311;47.966;7.958;2022-08-19T04:55:17;11.83;;;10.60;;
2602;SDS011;1311;47.966;7.958;2022-08-19T04:57:44;13.40;;;11.00;;
2602;SDS011;1311;47.966;7.958;2022-08-19T05:00:11;13.60;;;10.67;;
2602;SDS011;1311;47.966;7.958;2022-08-19T05:02:39;12.60;;;10.90;;
2602;SDS011;1311;47.966;7.958;2022-08-19T05:05:06;12.27;;;10.90;;
2602;SDS011;1311;47.966;7.958;2022-08-19T05:07:34;16.00;;;11.33;;
2602;SDS011;1311;47.966;7.958;2022-08-19T05:10:01;12.93;;;11.57;;
2602;SDS011;1311;47.966;7.958;2022-08-19T05:12:30;14.70;;;12.40;;
2602;SDS011;1311;47.966;7.958;2022-08-19T05:14:57;15.63;;;12.53;;
2602;SDS011;1311;47.966;7.958;2022-08-19T05:17:24;15.43;;;13.10;;
2602;SDS011;1311;47.966;7.958;2022-08-19T05:19:53;14.43;;;12.00;;
2602;SDS011;1311;47.966;7.958;2022-08-19T05:22:38;11.43;;;10.20;;
2602;SDS011;1311;47.966;7.958;2022-08-19T05:25:06;14.73;;;12.50;;
2602;SDS011;1311;47.966;7.958;2022-08-19T05:27:35;11.97;;;10.70;;
2602;SDS011;1311;47.966;7.958;2022-08-19T05:30:03;13.10;;;11.40;;
2602;SDS011;1311;47.966;7.958;2022-08-19T05:32:30;15.20;;;12.03;;
2602;SDS011;1311;47.966;7.958;2022-08-19T05:34:58;14.17;;;11.17;;
2602;SDS011;1311;47.966;7.958;2022-08-19T05:37:25;9.90;;;8.90;;
2602;SDS011;1311;47.966;7.958;2022-08-19T05:39:53;11.10;;;9.90;;
2602;SDS011;1311;47.966;7.958;2022-08-19T05:42:20;14.27;;;12.23;;
2602;SDS011;1311;47.966;7.958;2022-08-19T05:44:48;16.17;;;12.03;;
2602;SDS011;1311;47.966;7.958;2022-08-19T05:47:16;15.03;;;12.30;;
2602;SDS011;1311;47.966;7.958;2022-08-19T05:49:44;13.47;;;12.07;;
2602;SDS011;1311;47.966;7.958;2022-08-19T05:52:13;10.43;;;9.37;;
2602;SDS011;1311;47.966;7.958;2022-08-19T05:54:41;9.93;;;8.87;;
2602;SDS011;1311;47.966;7.958;2022-08-19T05:57:10;11.43;;;10.10;;
2602;SDS011;1311;47.966;7.958;2022-08-19T05:59:36;13.27;;;11.60;;
2602;SDS011;1311;47.966;7.958;2022-08-19T06:02:04;13.40;;;12.00;;
2602;SDS011;1311;47.966;7.958;2022-08-19T06:04:31;14.03;;;11.27;;
2602;SDS011;1311;47.966;7.958;2022-08-19T06:06:58;12.83;;;11.30;;
2602;SDS011;1311;47.966;7.958;2022-08-19T06:09:27;12.80;;;11.20;;
2602;SDS011;1311;47.966;7.958;2022-08-19T06:11:55;14.17;;;10.73;;
2602;SDS011;1311;47.966;7.958;2022-08-19T06:14:26;12.60;;;11.10;;
2602;SDS011;1311;47.966;7.958;2022-08-19T06:16:55;11.47;;;10.20;;
2602;SDS011;1311;47.966;7.958;2022-08-19T06:19:25;9.73;;;8.73;;
2602;SDS011;1311;47.966;7.958;2022-08-19T06:21:54;11.10;;;9.90;;
2602;SDS011;1311;47.966;7.958;2022-08-19T06:24:22;12.13;;;10.50;;
2602;SDS011;1311;47.966;7.958;2022-08-19T06:26:52;11.90;;;10.53;;
2602;SDS011;1311;47.966;7.958;2022-08-19T06:29:21;12.37;;;11.10;;
2602;SDS011;1311;47.966;7.958;2022-08-19T06:31:51;12.47;;;11.20;;
2602;SDS011;1311;47.966;7.958;2022-08-19T06:34:19;11.17;;;9.93;;
2602;SDS011;1311;47.966;7.958;2022-08-19T06:36:48;12.73;;;11.43;;
2602;SDS011;1311;47.966;7.958;2022-08-19T06:39:17;13.03;;;11.73;;
2602;SDS011;1311;47.966;7.958;2022-08-19T06:41:46;12.37;;;11.17;;
2602;SDS011;1311;47.966;7.958;2022-08-19T06:44:16;11.80;;;10.00;;
2602;SDS011;1311;47.966;7.958;2022-08-19T06:46:43;12.30;;;10.83;;
2602;SDS011;1311;47.966;7.958;2022-08-19T06:49:10;16.83;;;11.20;;
2602;SDS011;1311;47.966;7.958;2022-08-19T06:51:39;10.50;;;9.40;;
2602;SDS011;1311;47.966;7.958;2022-08-19T06:54:06;11.00;;;9.90;;
2602;SDS011;1311;47.966;7.958;2022-08-19T06:56:33;12.33;;;11.00;;
2602;SDS011;1311;47.966;7.958;2022-08-19T06:59:01;11.23;;;9.30;;
2602;SDS011;1311;47.966;7.958;2022-08-19T07:01:31;11.93;;;10.73;;
2602;SDS011;1311;47.966;7.958;2022-08-19T07:04:04;10.77;;;9.67;;
2602;SDS011;1311;47.966;7.958;2022-08-19T07:06:31;10.43;;;9.33;;
2602;SDS011;1311;47.966;7.958;2022-08-19T07:08:58;12.77;;;9.17;;
2602;SDS011;1311;47.966;7.958;2022-08-19T07:11:25;11.50;;;9.70;;
2602;SDS011;1311;47.966;7.958;2022-08-19T07:13:52;13.73;;;10.07;;
2602;SDS011;1311;47.966;7.958;2022-08-19T07:16:19;10.80;;;9.70;;
2602;SDS011;1311;47.966;7.958;2022-08-19T07:18:48;12.67;;;11.43;;
2602;SDS011;1311;47.966;7.958;2022-08-19T07:21:17;12.00;;;10.80;;
2602;SDS011;1311;47.966;7.958;2022-08-19T07:23:46;11.90;;;10.50;;
2602;SDS011;1311;47.966;7.958;2022-08-19T07:26:14;11.73;;;10.27;;
2602;SDS011;1311;47.966;7.958;2022-08-19T07:28:44;11.40;;;10.20;;
2602;SDS011;1311;47.966;7.958;2022-08-19T07:31:11;11.10;;;9.20;;
2602;SDS011;1311;47.966;7.958;2022-08-19T07:33:40;12.33;;;10.60;;
2602;SDS011;1311;47.966;7.958;2022-08-19T07:36:10;11.50;;;10.40;;
2602;SDS011;1311;47.966;7.958;2022-08-19T07:38:39;12.63;;;10.43;;
2602;SDS011;1311;47.966;7.958;2022-08-19T07:41:08;10.07;;;8.93;;
2602;SDS011;1311;47.966;7.958;2022-08-19T07:43:36;11.90;;;10.67;;
2602;SDS011;1311;47.966;7.958;2022-08-19T07:46:03;16.20;;;14.10;;
2602;SDS011;1311;47.966;7.958;2022-08-19T07:48:30;13.47;;;12.00;;
2602;SDS011;1311;47.966;7.958;2022-08-19T07:50:58;16.47;;;14.13;;
2602;SDS011;1311;47.966;7.958;2022-08-19T07:53:30;16.70;;;13.30;;
2602;SDS011;1311;47.966;7.958;2022-08-19T07:55:58;13.40;;;11.77;;
2602;SDS011;1311;47.966;7.958;2022-08-19T07:58:29;15.30;;;13.70;;
2602;SDS011;1311;47.966;7.958;2022-08-19T08:00:58;17.30;;;15.43;;
2602;SDS011;1311;47.966;7.958;2022-08-19T08:03:25;16.23;;;14.10;;
2602;SDS011;1311;47.966;7.958;2022-08-19T08:06:07;16.00;;;13.90;;
2602;SDS011;1311;47.966;7.958;2022-08-19T08:08:53;17.17;;;15.37;;
2602;SDS011;1311;47.966;7.958;2022-08-19T08:11:41;19.37;;;16.10;;
2602;SDS011;1311;47.966;7.958;2022-08-19T08:14:14;17.43;;;15.57;;
2602;SDS011;1311;47.966;7.958;2022-08-19T08:16:42;17.47;;;15.63;;
2602;SDS011;1311;47.966;7.958;2022-08-19T08:19:10;14.03;;;12.60;;
2602;SDS011;1311;47.966;7.958;2022-08-19T08:21:39;17.80;;;15.70;;
2602;SDS011;1311;47.966;7.958;2022-08-19T08:24:08;19.03;;;16.67;;
2602;SDS011;1311;47.966;7.958;2022-08-19T08:26:35;18.57;;;16.47;;
2602;SDS011;1311;47.966;7.958;2022-08-19T08:29:02;18.23;;;15.93;;
2602;SDS011;1311;47.966;7.958;2022-08-19T08:31:29;20.17;;;16.83;;
2602;SDS011;1311;47.966;7.958;2022-08-19T08:33:56;22.77;;;17.30;;
2602;SDS011;1311;47.966;7.958;2022-08-19T08:36:22;20.70;;;16.37;;
2602;SDS011;1311;47.966;7.958;2022-08-19T08:38:50;19.97;;;16.87;;
2602;SDS011;1311;47.966;7.958;2022-08-19T08:41:21;19.17;;;15.33;;
2602;SDS011;1311;47.966;7.958;2022-08-19T08:43:56;22.60;;;18.00;;
2602;SDS011;1311;47.966;7.958;2022-08-19T08:46:24;18.10;;;15.63;;
2602;SDS011;1311;47.966;7.958;2022-08-19T08:48:58;20.90;;;17.80;;
2602;SDS011;1311;47.966;7.958;2022-08-19T08:51:37;18.83;;;16.17;;
2602;SDS011;1311;47.966;7.958;2022-08-19T08:54:07;19.50;;;16.63;;
2602;SDS011;1311;47.966;7.958;2022-08-19T08:56:38;15.57;;;13.83;;
2602;SDS011;1311;47.966;7.958;2022-08-19T08:59:07;17.97;;;15.60;;
2602;SDS011;1311;47.966;7.958;2022-08-19T09:01:42;18.97;;;16.97;;
2602;SDS011;1311;47.966;7.958;2022-08-19T09:04:09;17.80;;;15.93;;
2602;SDS011;1311;47.966;7.958;2022-08-19T09:06:40;19.23;;;16.27;;
2602;SDS011;1311;47.966;7.958;2022-08-19T09:09:14;18.90;;;16.50;;
2602;SDS011;1311;47.966;7.958;2022-08-19T09:11:54;16.23;;;14.53;;
2602;SDS011;1311;47.966;7.958;2022-08-19T09:14:33;20.53;;;17.97;;
2602;SDS011;1311;47.966;7.958;2022-08-19T09:17:06;18.23;;;15.63;;
2602;SDS011;1311;47.966;7.958;2022-08-19T09:19:34;18.57;;;15.93;;
2602;SDS011;1311;47.966;7.958;2022-08-19T09:22:02;20.30;;;17.10;;
2602;SDS011;1311;47.966;7.958;2022-08-19T09:24:30;17.83;;;15.80;;
2602;SDS011;1311;47.966;7.958;2022-08-19T09:26:58;19.30;;;15.80;;
2602;SDS011;1311;47.966;7.958;2022-08-19T09:29:25;17.13;;;15.03;;
2602;SDS011;1311;47.966;7.958;2022-08-19T09:31:51;16.83;;;15.03;;
2602;SDS011;1311;47.966;7.958;2022-08-19T09:34:18;18.20;;;16.23;;
2602;SDS011;1311;47.966;7.958;2022-08-19T09:36:45;17.20;;;15.40;;
2602;SDS011;1311;47.966;7.958;2022-08-19T09:39:18;17.17;;;15.30;;
2602;SDS011;1311;47.966;7.958;2022-08-19T09:41:44;18.43;;;16.30;;
2602;SDS011;1311;47.966;7.958;2022-08-19T09:44:13;17.60;;;15.20;;
2602;SDS011;1311;47.966;7.958;2022-08-19T09:46:39;18.27;;;16.00;;
2602;SDS011;1311;47.966;7.958;2022-08-19T09:49:06;19.70;;;16.03;;
2602;SDS011;1311;47.966;7.958;2022-08-19T09:51:33;18.23;;;16.27;;
2602;SDS011;1311;47.966;7.958;2022-08-19T09:54:00;15.70;;;14.10;;
2602;SDS011;1311;47.966;7.958;2022-08-19T09:56:29;14.80;;;13.27;;
2602;SDS011;1311;47.966;7.958;2022-08-19T09:58:57;19.70;;;17.40;;
2602;SDS011;1311;47.966;7.958;2022-08-19T10:01:26;18.07;;;15.07;;
2602;SDS011;1311;47.966;7.958;2022-08-19T10:03:55;16.57;;;14.87;;
2602;SDS011;1311;47.966;7.958;2022-08-19T10:06:24;14.83;;;13.43;;
2602;SDS011;1311;47.966;7.958;2022-08-19T10:08:54;16.27;;;14.67;;
2602;SDS011;1311;47.966;7.958;2022-08-19T10:11:21;17.07;;;15.27;;
2602;SDS011;1311;47.966;7.958;2022-08-19T10:13:48;20.80;;;18.50;;
2602;SDS011;1311;47.966;7.958;2022-08-19T10:16:17;19.90;;;16.23;;
2602;SDS011;1311;47.966;7.958;2022-08-19T10:18:47;16.67;;;15.00;;
2602;SDS011;1311;47.966;7.958;2022-08-19T10:21:15;16.00;;;14.40;;
2602;SDS011;1311;47.966;7.958;2022-08-19T10:23:45;15.53;;;13.90;;
2602;SDS011;1311;47.966;7.958;2022-08-19T10:26:15;19.67;;;16.07;;
2602;SDS011;1311;47.966;7.958;2022-08-19T10:28:44;19.83;;;15.67;;
2602;SDS011;1311;47.966;7.958;2022-08-19T10:31:11;16.57;;;14.50;;
2602;SDS011;1311;47.966;7.958;2022-08-19T10:33:40;19.90;;;17.73;;
2602;SDS011;1311;47.966;7.958;2022-08-19T10:36:10;18.77;;;16.37;;
2602;SDS011;1311;47.966;7.958;2022-08-19T10:38:40;22.00;;;18.97;;
2602;SDS011;1311;47.966;7.958;2022-08-19T10:41:08;19.60;;;16.43;;
2602;SDS011;1311;47.966;7.958;2022-08-19T10:43:36;17.00;;;15.30;;
2602;SDS011;1311;47.966;7.958;2022-08-19T10:46:04;19.37;;;17.23;;
2602;SDS011;1311;47.966;7.958;2022-08-19T10:48:32;19.97;;;17.70;;
2602;SDS011;1311;47.966;7.958;2022-08-19T10:50:59;19.67;;;17.37;;
2602;SDS011;1311;47.966;7.958;2022-08-19T10:53:46;20.13;;;15.60;;
2602;SDS011;1311;47.966;7.958;2022-08-19T10:56:13;15.33;;;13.90;;
2602;SDS011;1311;47.966;7.958;2022-08-19T10:58:57;19.67;;;16.43;;
2602;SDS011;1311;47.966;7.958;2022-08-19T11:01:24;16.73;;;14.90;;
2602;SDS011;1311;47.966;7.958;2022-08-19T11:03:51;18.23;;;16.00;;
2602;SDS011;1311;47.966;7.958;2022-08-19T11:06:18;15.67;;;13.87;;
2602;SDS011;1311;47.966;7.958;2022-08-19T11:08:47;18.90;;;15.77;;
2602;SDS011;1311;47.966;7.958;2022-08-19T11:11:14;19.57;;;16.87;;
2602;SDS011;1311;47.966;7.958;2022-08-19T11:13:40;17.67;;;15.83;;
2602;SDS011;1311;47.966;7.958;2022-08-19T11:16:10;16.50;;;14.10;;
2602;SDS011;1311;47.966;7.958;2022-08-19T11:18:40;18.17;;;16.27;;
2602;SDS011;1311;47.966;7.958;2022-08-19T11:21:10;14.53;;;13.03;;
2602;SDS011;1311;47.966;7.958;2022-08-19T11:23:39;20.13;;;17.93;;
2602;SDS011;1311;47.966;7.958;2022-08-19T11:26:07;19.43;;;17.27;;
2602;SDS011;1311;47.966;7.958;2022-08-19T11:28:34;21.10;;;17.20;;
2602;SDS011;1311;47.966;7.958;2022-08-19T11:31:02;19.80;;;17.70;;
2602;SDS011;1311;47.966;7.958;2022-08-19T11:33:29;17.80;;;15.90;;
2602;SDS011;1311;47.966;7.958;2022-08-19T11:35:57;16.03;;;14.17;;
2602;SDS011;1311;47.966;7.958;2022-08-19T11:38:25;16.43;;;14.73;;
2602;SDS011;1311;47.966;7.958;2022-08-19T11:40:56;16.30;;;14.20;;
2602;SDS011;1311;47.966;7.958;2022-08-19T11:43:25;15.50;;;13.90;;
2602;SDS011;1311;47.966;7.958;2022-08-19T11:45:52;21.80;;;16.40;;
2602;SDS011;1311;47.966;7.958;2022-08-19T11:48:19;16.47;;;14.80;;
2602;SDS011;1311;47.966;7.958;2022-08-19T11:50:47;22.43;;;19.40;;
2602;SDS011;1311;47.966;7.958;2022-08-19T11:53:14;19.33;;;17.30;;
2602;SDS011;1311;47.966;7.958;2022-08-19T11:55:43;20.93;;;18.90;;
2602;SDS011;1311;47.966;7.958;2022-08-19T11:58:10;23.13;;;20.73;;
2602;SDS011;1311;47.966;7.958;2022-08-19T12:00:39;17.70;;;15.90;;
2602;SDS011;1311;47.966;7.958;2022-08-19T12:03:06;21.97;;;19.57;;
2602;SDS011;1311;47.966;7.958;2022-08-19T12:05:33;18.87;;;16.90;;
2602;SDS011;1311;47.966;7.958;2022-08-19T12:08:03;23.03;;;20.43;;
2602;SDS011;1311;47.966;7.958;2022-08-19T12:10:30;24.97;;;20.23;;
2602;SDS011;1311;47.966;7.958;2022-08-19T12:12:57;21.30;;;17.77;;
2602;SDS011;1311;47.966;7.958;2022-08-19T12:15:24;15.97;;;14.20;;
2602;SDS011;1311;47.966;7.958;2022-08-19T12:17:54;16.30;;;14.60;;
2602;SDS011;1311;47.966;7.958;2022-08-19T12:20:21;16.53;;;14.40;;
2602;SDS011;1311;47.966;7.958;2022-08-19T12:22:49;17.93;;;15.33;;
2602;SDS011;1311;47.966;7.958;2022-08-19T12:25:16;15.90;;;14.30;;
2602;SDS011;1311;47.966;7.958;2022-08-19T12:27:43;15.30;;;13.70;;
2602;SDS011;1311;47.966;7.958;2022-08-19T12:30:11;18.57;;;16.67;;
2602;SDS011;1311;47.966;7.958;2022-08-19T12:32:39;19.70;;;16.60;;
2602;SDS011;1311;47.966;7.958;2022-08-19T12:35:08;19.60;;;17.57;;
2602;SDS011;1311;47.966;7.958;2022-08-19T12:37:36;15.17;;;13.63;;
2602;SDS011;1311;47.966;7.958;2022-08-19T12:40:04;21.13;;;18.73;;
2602;SDS011;1311;47.966;7.958;2022-08-19T12:42:31;15.77;;;14.17;;
2602;SDS011;1311;47.966;7.958;2022-08-19T12:44:58;13.00;;;11.80;;
2602;SDS011;1311;47.966;7.958;2022-08-19T12:47:24;18.13;;;16.10;;
2602;SDS011;1311;47.966;7.958;2022-08-19T12:49:52;19.50;;;17.50;;
2602;SDS011;1311;47.966;7.958;2022-08-19T12:52:20;21.20;;;19.10;;
2602;SDS011;1311;47.966;7.958;2022-08-19T12:54:49;14.43;;;12.93;;
2602;SDS011;1311;47.966;7.958;2022-08-19T12:57:17;12.93;;;11.70;;
2602;SDS011;1311;47.966;7.958;2022-08-19T12:59:44;15.10;;;13.80;;
2602;SDS011;1311;47.966;7.958;2022-08-19T13:02:10;12.57;;;11.40;;
2602;SDS011;1311;47.966;7.958;2022-08-19T13:04:37;14.20;;;12.80;;
2602;SDS011;1311;47.966;7.958;2022-08-19T13:07:06;13.00;;;11.80;;
2602;SDS011;1311;47.966;7.958;2022-08-19T13:09:35;12.80;;;11.60;;
2602;SDS011;1311;47.966;7.958;2022-08-19T13:12:02;14.87;;;13.30;;
2602;SDS011;1311;47.966;7.958;2022-08-19T13:14:32;13.63;;;12.43;;
2602;SDS011;1311;47.966;7.958;2022-08-19T13:16:59;13.80;;;12.43;;
2602;SDS011;1311;47.966;7.958;2022-08-19T13:19:27;13.33;;;12.10;;
2602;SDS011;1311;47.966;7.958;2022-08-19T13:21:55;12.73;;;11.43;;
2602;SDS011;1311;47.966;7.958;2022-08-19T13:24:22;16.00;;;14.57;;
2602;SDS011;1311;47.966;7.958;2022-08-19T13:26:51;14.10;;;12.90;;
2602;SDS011;1311;47.966;7.958;2022-08-19T13:29:17;13.40;;;12.20;;
2602;SDS011;1311;47.966;7.958;2022-08-19T13:32:02;12.87;;;11.77;;
2602;SDS011;1311;47.966;7.958;2022-08-19T13:34:47;18.83;;;15.10;;
2602;SDS011;1311;47.966;7.958;2022-08-19T13:37:13;14.87;;;13.57;;
2602;SDS011;1311;47.966;7.958;2022-08-19T13:39:40;15.20;;;13.80;;
2602;SDS011;1311;47.966;7.958;2022-08-19T13:42:08;17.93;;;16.23;;
2602;SDS011;1311;47.966;7.958;2022-08-19T13:44:35;15.70;;;14.30;;
2602;SDS011;1311;47.966;7.958;2022-08-19T13:47:03;14.40;;;13.00;;
2602;SDS011;1311;47.966;7.958;2022-08-19T13:49:31;12.40;;;11.20;;
2602;SDS011;1311;47.966;7.958;2022-08-19T13:51:58;14.93;;;13.43;;
2602;SDS011;1311;47.966;7.958;2022-08-19T13:54:25;12.30;;;11.30;;
2602;SDS011;1311;47.966;7.958;2022-08-19T13:56:53;14.33;;;12.93;;
2602;SDS011;1311;47.966;7.958;2022-08-19T13:59:21;13.17;;;12.13;;
2602;SDS011;1311;47.966;7.958;2022-08-19T14:01:47;10.90;;;9.90;;
2602;SDS011;1311;47.966;7.958;2022-08-19T14:04:14;12.50;;;11.20;;
2602;SDS011;1311;47.966;7.958;2022-08-19T14:06:41;12.27;;;11.27;;
2602;SDS011;1311;47.966;7.958;2022-08-19T14:09:08;11.10;;;10.20;;
2602;SDS011;1311;47.966;7.958;2022-08-19T14:11:35;11.83;;;10.70;;
2602;SDS011;1311;47.966;7.958;2022-08-19T14:14:02;11.47;;;10.57;;
2602;SDS011;1311;47.966;7.958;2022-08-19T14:16:30;11.17;;;10.13;;
2602;SDS011;1311;47.966;7.958;2022-08-19T14:18:57;11.50;;;10.50;;
2602;SDS011;1311;47.966;7.958;2022-08-19T14:21:24;9.57;;;8.87;;
2602;SDS011;1311;47.966;7.958;2022-08-19T14:23:51;10.67;;;9.67;;
2602;SDS011;1311;47.966;7.958;2022-08-19T14:26:19;9.97;;;9.07;;
2602;SDS011;1311;47.966;7.958;2022-08-19T14:28:47;11.10;;;10.20;;
2602;SDS011;1311;47.966;7.958;2022-08-19T14:31:15;10.70;;;9.80;;
2602;SDS011;1311;47.966;7.958;2022-08-19T14:33:46;11.43;;;10.43;;
2602;SDS011;1311;47.966;7.958;2022-08-19T14:36:12;10.60;;;9.80;;
2602;SDS011;1311;47.966;7.958;2022-08-19T14:38:40;10.60;;;9.70;;
2602;SDS011;1311;47.966;7.958;2022-08-19T14:41:09;10.80;;;9.90;;
2602;SDS011;1311;47.966;7.958;2022-08-19T14:43:37;10.23;;;9.33;;
2602;SDS011;1311;47.966;7.958;2022-08-19T14:46:04;10.90;;;9.90;;
2602;SDS011;1311;47.966;7.958;2022-08-19T14:48:32;10.97;;;10.07;;
2602;SDS011;1311;47.966;7.958;2022-08-19T14:51:02;10.70;;;9.70;;
2602;SDS011;1311;47.966;7.958;2022-08-19T14:53:29;10.23;;;9.30;;
2602;SDS011;1311;47.966;7.958;2022-08-19T14:55:56;11.37;;;10.33;;
2602;SDS011;1311;47.966;7.958;2022-08-19T14:58:22;10.43;;;9.63;;
2602;SDS011;1311;47.966;7.958;2022-08-19T15:00:49;10.67;;;9.77;;
2602;SDS011;1311;47.966;7.958;2022-08-19T15:03:16;11.80;;;10.60;;